Terminal Aerodrome Forecast
Issued by NWS

Home | Current Version | Previous Version | Text Only | Print | Product List | Glossary On
Versions: 1 2 3 4 5 6 7 8 9 10 11 12 13 14 15 16
000
FTUS41 KBTV 241345 AAA
TAFMPV
TAF AMD
KMPV 241345Z 2414/2512 16010KT 3SM -RA BR OVC015 WS020/16050KT
      TEMPO 2414/2416 21010G20KT 2SM -RA BR OVC010
     FM241600 17015G22KT P6SM OVC015 WS020/19045KT
     FM242100 18016G25KT P6SM SCT030
     FM250200 21016KT P6SM BKN060
     FM250700 23015KT P6SM SCT050=

USA.gov is the U.S. government's official web portal to all federal, state and local government web resources and services.